RJFG(METAR)
05/26 18:00
METAR RJFG 260900Z VRB02KT 8000 -RA FEW015 SCT030 BKN/// 22/19 Q1009
RMK 1CU015 3SC030 A2982=
戻る
トップページへ戻る
IMOC Co,.Ltd.